Time;durP1;ratioP1;P1;durP2;ratioP2;P2;SDS_P1;SDS_P2;PMS_P1;PMS_P2;Temp;Humidity;BMP_temperature;BMP_pressure;BME280_temperature;BME280_humidity;BME280_pressure;Samples;Min_cycle;Max_cycle;Signal;HPM_P1;HPM_P2
2023/04/12 00:02:58;;;;;;;4.57;2.80;;;;;;;11.38;48.51;99078.59;10345427;28;20633;-37
2023/04/12 00:08:03;;;;;;;3.60;2.90;;;;;;;9.02;52.27;98875.94;10350390;28;20275;-37
2023/04/12 00:13:07;;;;;;;5.53;3.00;;;;;;;10.22;51.18;99003.88;10350944;28;20272;-37
2023/04/12 00:18:08;;;;;;;3.10;2.33;;;;;;;10.73;50.29;99045.34;10351297;28;20241;-37
2023/04/12 00:23:11;;;;;;;5.27;2.90;;;;;;;11.09;50.13;99041.53;10353632;28;20244;-37
2023/04/12 00:28:14;;;;;;;4.67;2.70;;;;;;;10.29;51.63;98986.00;10357649;28;20750;-37
2023/04/12 00:33:16;;;;;;;4.10;2.87;;;;;;;11.37;49.90;99031.41;10353480;28;20236;-37
2023/04/12 00:38:18;;;;;;;4.70;3.40;;;;;;;11.81;49.05;99002.25;10333465;28;20251;-37
2023/04/12 00:43:20;;;;;;;6.20;3.30;;;;;;;12.72;47.99;99021.84;10362167;28;20201;-37
2023/04/12 00:48:23;;;;;;;4.53;3.20;;;;;;;11.66;49.29;99010.56;10350151;28;20257;-37
2023/04/12 00:53:26;;;;;;;7.90;2.93;;;;;;;9.34;53.55;98868.28;10355379;28;20235;-37
2023/04/12 00:58:28;;;;;;;8.83;3.30;;;;;;;10.58;52.35;99010.75;10349555;28;20247;-37
2023/04/12 01:03:30;;;;;;;4.90;3.40;;;;;;;11.98;49.75;98997.28;10351213;28;20245;-37
2023/04/12 01:08:47;;;;;;;4.10;3.00;;;;;;;10.56;53.09;98991.41;10349668;28;20280;-37
2023/04/12 01:14:28;;;;;;;6.40;3.73;;;;;;;10.61;53.26;99000.47;10350799;28;20244;-37
2023/04/12 01:19:45;;;;;;;3.87;3.20;;;;;;;10.72;52.67;98987.53;10353008;28;20225;-37
2023/04/12 01:25:26;;;;;;;4.97;2.93;;;;;;;10.23;54.01;98966.25;10346650;28;20236;-37
2023/04/12 01:30:29;;;;;;;4.13;3.33;;;;;;;11.20;51.66;98965.91;10346217;28;20237;-37
2023/04/12 01:35:32;;;;;;;3.60;3.30;;;;;;;10.52;52.75;98974.94;10350484;28;20576;-37
2023/04/12 01:40:39;;;;;;;6.70;3.50;;;;;;;10.37;53.93;98976.97;10351042;28;20312;-37
2023/04/12 01:45:41;;;;;;;12.43;3.20;;;;;;;10.99;52.11;98951.72;10346943;28;20667;-37
2023/04/12 01:51:00;;;;;;;3.63;2.90;;;;;;;10.23;54.28;98966.25;10348759;28;20236;-36
2023/04/12 01:56:08;;;;;;;3.60;2.80;;;;;;;9.53;55.27;98902.28;10348225;28;20225;-37
2023/04/12 02:01:12;;;;;;;4.30;2.73;;;;;;;10.59;53.44;98945.53;10351304;28;20237;-37
2023/04/12 02:06:17;;;;;;;3.93;2.70;;;;;;;10.66;53.25;98947.19;10350113;28;20229;-37
2023/04/12 02:11:19;;;;;;;3.87;3.20;;;;;;;10.45;54.05;98955.41;10347799;28;20252;-37
2023/04/12 02:16:24;;;;;;;4.10;3.00;;;;;;;11.30;52.87;98971.66;10348226;28;20233;-37
2023/04/12 02:21:26;;;;;;;4.80;2.80;;;;;;;11.28;52.09;98951.50;10347710;28;20695;-37
2023/04/12 02:26:28;;;;;;;5.13;2.50;;;;;;;11.23;51.74;98939.53;10348786;28;20229;-37
2023/04/12 02:31:30;;;;;;;4.87;3.07;;;;;;;11.55;51.53;98955.72;10349860;28;20225;-37
2023/04/12 02:36:31;;;;;;;5.60;2.63;;;;;;;10.56;53.06;98938.72;10343945;28;20233;-37
2023/04/12 02:41:33;;;;;;;3.67;2.77;;;;;;;9.61;55.41;98911.13;10344611;28;20628;-37
2023/04/12 02:46:35;;;;;;;2.93;2.57;;;;;;;9.58;56.11;98915.03;10347384;28;20317;-37
2023/04/12 02:51:37;;;;;;;6.33;3.00;;;;;;;9.23;55.93;98872.38;10350727;28;20296;-37
2023/04/12 02:56:39;;;;;;;3.60;2.60;;;;;;;10.35;53.45;98877.44;10346888;28;20706;-36
2023/04/12 03:01:45;;;;;;;4.03;2.70;;;;;;;11.30;51.99;98923.44;10341386;28;20238;-36
2023/04/12 03:06:53;;;;;;;4.93;2.60;;;;;;;10.68;53.29;98894.28;10325441;28;20241;-36
2023/04/12 03:11:54;;;;;;;3.27;2.80;;;;;;;10.29;53.61;98882.56;10317351;28;20240;-37
2023/04/12 03:16:57;;;;;;;2.93;2.57;;;;;;;9.67;54.60;98835.53;10347218;28;20233;-36
2023/04/12 03:21:59;;;;;;;3.20;2.90;;;;;;;9.68;54.51;98839.84;10349448;28;20239;-36
2023/04/12 03:27:03;;;;;;;4.67;2.50;;;;;;;10.36;53.85;98868.34;10347035;28;20233;-37
2023/04/12 03:32:04;;;;;;;2.60;2.40;;;;;;;10.37;53.53;98876.19;10341624;28;20712;-37
2023/04/12 03:37:06;;;;;;;2.63;2.40;;;;;;;10.31;53.92;98855.63;10346554;28;20624;-37
2023/04/12 03:42:08;;;;;;;4.57;2.90;;;;;;;10.38;54.19;98863.63;10348414;28;20350;-37
2023/04/12 03:47:26;;;;;;;4.43;3.13;;;;;;;10.63;54.19;98878.03;10350262;28;20233;-37
2023/04/12 03:52:28;;;;;;;3.93;2.60;;;;;;;11.44;51.57;98865.31;10345337;28;20324;-37
2023/04/12 03:57:29;;;;;;;3.03;2.70;;;;;;;12.02;50.37;98904.63;10351011;28;20244;-37
2023/04/12 04:02:32;;;;;;;3.83;2.60;;;;;;;12.53;49.06;98892.13;10355115;28;20233;-37
2023/04/12 04:07:35;;;;;;;3.10;2.70;;;;;;;13.87;46.92;98913.06;10355482;28;20719;-37
2023/04/12 04:12:37;;;;;;;4.43;2.90;;;;;;;13.22;47.62;98830.31;10352080;28;20255;-37
2023/04/12 04:17:38;;;;;;;6.13;4.73;;;;;;;12.62;49.46;98817.53;10345729;28;20275;-37
2023/04/12 04:22:41;;;;;;;6.57;4.03;;;;;;;12.98;48.45;98797.13;10348762;28;20299;-37
2023/04/12 04:27:45;;;;;;;4.77;3.27;;;;;;;13.19;48.01;98810.06;10355289;28;20221;-37
2023/04/12 04:32:48;;;;;;;4.17;2.93;;;;;;;14.40;45.99;98858.47;10355531;28;20237;-36
2023/04/12 04:37:51;;;;;;;3.67;2.57;;;;;;;14.57;45.18;98834.38;10345655;28;20980;-37
2023/04/12 04:42:53;;;;;;;3.63;3.00;;;;;;;14.12;45.91;98797.28;10346271;28;20241;-35
2023/04/12 04:47:55;;;;;;;2.70;2.50;;;;;;;14.94;45.24;98839.53;10346956;28;20237;-35
2023/04/12 04:52:57;;;;;;;4.17;3.03;;;;;;;13.01;47.24;98673.13;10352895;28;20925;-35
2023/04/12 04:57:59;;;;;;;7.03;5.40;;;;;;;14.37;46.13;98772.00;10348986;28;20777;-35
2023/04/12 05:03:04;;;;;;;5.67;3.57;;;;;;;13.75;46.34;98713.22;10347209;28;20323;-35
2023/04/12 05:08:06;;;;;;;5.17;4.20;;;;;;;13.74;46.25;98708.91;10350811;28;20555;-35
2023/04/12 05:13:08;;;;;;;4.57;3.00;;;;;;;12.90;47.51;98639.84;10349496;28;20244;-36
2023/04/12 05:18:10;;;;;;;3.03;2.53;;;;;;;14.07;46.74;98713.75;10354708;28;20214;-37
2023/04/12 05:23:12;;;;;;;3.33;2.80;;;;;;;12.67;48.61;98619.06;10347357;28;20213;-36
2023/04/12 05:28:16;;;;;;;2.50;2.30;;;;;;;10.59;52.74;98552.28;10347264;28;20237;-35
2023/04/12 05:33:17;;;;;;;4.10;3.43;;;;;;;11.06;52.46;98625.91;10345092;28;20214;-35
2023/04/12 05:38:19;;;;;;;3.00;2.70;;;;;;;10.59;53.38;98577.16;10353578;28;20240;-36
2023/04/12 05:43:21;;;;;;;6.30;3.57;;;;;;;11.79;51.28;98602.28;10349534;28;20224;-35
2023/04/12 05:48:23;;;;;;;4.70;3.50;;;;;;;12.00;50.14;98595.69;10349155;28;20248;-36
2023/04/12 05:53:28;;;;;;;4.17;3.73;;;;;;;11.00;52.91;98597.34;10346837;28;20848;-35
2023/04/12 05:58:30;;;;;;;3.83;3.13;;;;;;;12.09;51.14;98613.13;10347301;28;20237;-35
2023/04/12 06:03:32;;;;;;;3.33;3.00;;;;;;;11.41;52.61;98606.72;10349214;28;20721;-35
2023/04/12 06:08:35;;;;;;;4.00;3.17;;;;;;;10.98;52.89;98561.13;10352380;28;20245;-35
2023/04/12 06:13:38;;;;;;;4.03;2.87;;;;;;;11.39;52.44;98562.47;10348201;28;20244;-35
2023/04/12 06:18:40;;;;;;;3.13;2.83;;;;;;;11.25;53.65;98572.44;10344440;28;20233;-35
2023/04/12 06:23:41;;;;;;;4.73;2.87;;;;;;;12.47;51.08;98593.31;10343889;28;20236;-35
2023/04/12 06:28:43;;;;;;;5.47;3.10;;;;;;;11.41;53.51;98555.84;10351003;28;20244;-35
2023/04/12 06:33:45;;;;;;;3.90;3.40;;;;;;;11.49;52.89;98530.63;10348734;28;20252;-35
2023/04/12 06:38:49;;;;;;;3.50;2.90;;;;;;;10.91;54.57;98533.59;10343006;28;20249;-37
2023/04/12 06:43:51;;;;;;;3.20;2.57;;;;;;;10.74;54.37;98531.41;10347737;28;20237;-35
2023/04/12 06:48:52;;;;;;;5.23;2.90;;;;;;;11.33;53.04;98533.88;10346186;28;20248;-35
2023/04/12 06:53:56;;;;;;;4.20;3.80;;;;;;;11.61;53.39;98554.84;10345152;28;20245;-35
2023/04/12 06:58:58;;;;;;;4.40;3.60;;;;;;;12.45;52.00;98581.13;10343309;28;20773;-35
2023/04/12 07:04:00;;;;;;;5.53;3.60;;;;;;;11.26;54.66;98515.19;10343142;28;20240;-35
2023/04/12 07:09:02;;;;;;;7.13;4.10;;;;;;;10.55;55.56;98470.84;10345949;28;20236;-35
2023/04/12 07:14:04;;;;;;;5.03;3.43;;;;;;;11.72;53.88;98521.97;10344183;28;20228;-35
2023/04/12 07:19:07;;;;;;;5.83;3.40;;;;;;;12.11;53.23;98532.47;10341606;28;20233;-35
2023/04/12 07:24:09;;;;;;;5.60;2.70;;;;;;;11.33;54.09;98474.94;10353671;28;20252;-35
2023/04/12 07:29:10;;;;;;;5.27;3.00;;;;;;;12.30;52.48;98533.25;10352615;28;20839;-35
2023/04/12 07:34:12;;;;;;;5.40;3.70;;;;;;;12.59;51.92;98541.56;10348504;28;20780;-34
2023/04/12 07:39:14;;;;;;;5.43;3.73;;;;;;;13.11;50.27;98566.00;10353388;28;20220;-35
2023/04/12 07:44:16;;;;;;;9.70;7.23;;;;;;;12.51;51.20;98500.59;10355794;28;20228;-35
2023/04/12 07:49:18;;;;;;;8.67;5.33;;;;;;;13.81;49.43;98599.38;10352037;28;20233;-35
2023/04/12 07:54:19;;;;;;;5.23;3.50;;;;;;;12.75;51.68;98508.72;10349532;28;20703;-35
2023/04/12 07:59:23;;;;;;;5.10;4.00;;;;;;;12.28;53.26;98487.91;10347799;28;20260;-35
2023/04/12 08:04:27;;;;;;;5.70;3.83;;;;;;;11.67;54.31;98460.19;10350808;28;20241;-35
2023/04/12 08:09:29;;;;;;;8.93;5.10;;;;;;;11.47;54.68;98436.25;10352348;28;20279;-35
2023/04/12 08:14:31;;;;;;;5.07;3.30;;;;;;;11.74;54.56;98433.31;10353954;28;20699;-35
2023/04/12 08:19:33;;;;;;;4.67;3.40;;;;;;;10.35;56.86;98361.34;10351342;28;20236;-34
2023/04/12 08:24:35;;;;;;;4.57;3.03;;;;;;;12.80;53.00;98510.72;10348837;28;20237;-34
2023/04/12 08:29:37;;;;;;;4.23;3.40;;;;;;;12.65;52.27;98495.03;10353741;28;20245;-34
2023/04/12 08:34:38;;;;;;;5.50;3.30;;;;;;;12.31;53.27;98471.31;10352427;28;20244;-34
2023/04/12 08:39:40;;;;;;;5.43;3.23;;;;;;;11.74;54.34;98449.38;10352286;28;20268;-35
2023/04/12 08:44:43;;;;;;;6.30;3.60;;;;;;;11.34;55.09;98406.94;10351887;28;20237;-37
2023/04/12 08:49:44;;;;;;;5.13;3.60;;;;;;;12.89;53.06;98530.78;10349646;28;20880;-37
2023/04/12 08:54:46;;;;;;;3.93;3.27;;;;;;;12.98;52.22;98553.59;10352354;28;20229;-37
2023/04/12 08:59:51;;;;;;;4.50;2.90;;;;;;;12.39;53.86;98490.84;10366369;23;20245;-37
2023/04/12 09:04:54;;;;;;;7.67;3.00;;;;;;;11.78;54.55;98451.41;10347962;28;20238;-37
2023/04/12 09:09:57;;;;;;;5.30;3.10;;;;;;;11.03;55.42;98369.38;10328912;28;20233;-37
2023/04/12 09:15:12;;;;;;;6.33;3.47;;;;;;;10.87;57.05;98404.75;10326844;28;20585;-37
2023/04/12 09:20:17;;;;;;;5.90;3.30;;;;;;;11.48;56.91;98439.78;10320815;28;20232;-37
2023/04/12 09:25:35;;;;;;;8.00;3.50;;;;;;;11.61;56.52;98443.13;10317725;28;20241;-37
2023/04/12 09:30:41;;;;;;;6.70;3.20;;;;;;;11.22;57.64;98415.75;10314368;28;20272;-37
2023/04/12 09:35:43;;;;;;;7.13;3.03;;;;;;;10.82;58.35;98393.91;10323892;28;20265;-37
2023/04/12 09:40:45;;;;;;;5.10;3.33;;;;;;;11.47;57.44;98425.53;10326486;28;20237;-37
2023/04/12 09:45:47;;;;;;;5.07;3.80;;;;;;;11.21;56.78;98419.44;10311520;28;20233;-37
2023/04/12 09:50:57;;;;;;;5.07;3.00;;;;;;;9.74;59.85;98321.63;10319488;28;20257;-37
2023/04/12 09:56:02;;;;;;;5.97;3.10;;;;;;;11.03;58.25;98401.50;10319081;28;20237;-37
2023/04/12 10:01:08;;;;;;;5.63;3.37;;;;;;;11.62;57.69;98439.44;10317708;28;20683;-37
2023/04/12 10:06:11;;;;;;;5.20;3.53;;;;;;;11.90;56.58;98483.63;10314605;28;20582;-38
2023/04/12 10:11:13;;;;;;;4.33;3.37;;;;;;;11.68;57.27;98444.94;10315439;28;20719;-37
2023/04/12 10:16:15;;;;;;;3.90;3.13;;;;;;;10.52;58.77;98362.41;10316415;28;20895;-37
2023/04/12 10:21:17;;;;;;;5.57;4.13;;;;;;;11.12;57.92;98420.78;10317482;28;20332;-38
2023/04/12 10:26:19;;;;;;;3.17;2.80;;;;;;;11.32;58.40;98430.47;10324482;28;20233;-37
2023/04/12 10:31:33;;;;;;;5.27;2.70;;;;;;;12.15;56.91;98499.63;10316015;28;20776;-37
2023/04/12 10:36:55;;;;;;;6.30;3.40;;;;;;;12.06;57.45;98497.47;10313424;28;20613;-37
2023/04/12 10:42:22;;;;;;;6.47;2.80;;;;;;;11.61;57.10;98461.88;10311358;28;20235;-37
2023/04/12 10:47:53;;;;;;;3.30;3.00;;;;;;;11.22;57.85;98394.31;10318081;28;20229;-37
2023/04/12 10:53:17;;;;;;;3.20;2.80;;;;;;;10.93;57.86;98390.47;10319150;28;20237;-37
2023/04/12 10:58:46;;;;;;;5.53;2.67;;;;;;;11.86;56.83;98473.56;10316679;28;21842;-37
2023/04/12 11:07:02;;;;;;;5.53;3.00;;;;;;;9.98;62.32;98519.66;10418496;27;21066;-72
2023/04/12 11:12:03;;;;;;;4.23;2.80;;;;;;;9.89;61.87;98478.19;10338099;28;20455;-72
2023/04/12 11:17:05;;;;;;;4.00;2.93;;;;;;;10.00;61.07;98487.38;10338845;28;20339;-72
2023/04/12 11:22:10;;;;;;;5.43;2.90;;;;;;;9.57;61.20;98446.81;10341552;28;20240;-72
2023/04/12 11:27:11;;;;;;;3.43;3.10;;;;;;;9.13;61.43;98397.66;10406451;28;20236;-72
2023/04/12 11:32:13;;;;;;;3.40;2.20;;;;;;;9.84;60.67;98473.47;10417095;28;20234;-72
2023/04/12 11:37:18;;;;;;;4.90;2.90;;;;;;;10.25;59.28;98479.44;10421014;28;20228;-73
2023/04/12 11:42:23;;;;;;;5.10;2.93;;;;;;;10.57;58.53;98516.91;10418874;28;20436;-72
2023/04/12 11:47:25;;;;;;;3.77;2.40;;;;;;;10.49;58.11;98501.94;10423466;28;20240;-72
2023/04/12 11:52:29;;;;;;;5.03;2.30;;;;;;;11.10;57.30;98548.66;10419656;28;20232;-72
2023/04/12 11:57:32;;;;;;;2.77;2.57;;;;;;;9.54;58.49;98395.69;10420182;28;20239;-71
2023/04/12 12:02:36;;;;;;;5.83;2.43;;;;;;;11.33;56.58;98556.09;10423081;28;20795;-72
2023/04/12 12:07:46;;;;;;;2.97;2.60;;;;;;;12.25;55.50;98605.53;10425367;28;20521;-72
2023/04/12 12:12:48;;;;;;;3.13;2.40;;;;;;;11.98;55.41;98581.72;10422461;28;20337;-72
2023/04/12 12:17:50;;;;;;;3.43;2.27;;;;;;;11.73;54.99;98547.72;10394133;28;20232;-73
2023/04/12 12:22:52;;;;;;;2.67;2.47;;;;;;;12.51;54.35;98566.84;10424907;28;20609;-72
2023/04/12 12:27:56;;;;;;;4.50;2.97;;;;;;;11.74;55.69;98492.25;10396296;28;20228;-72
2023/04/12 12:32:58;;;;;;;3.87;2.60;;;;;;;12.76;53.73;98577.47;10388701;28;20221;-72
2023/04/12 12:38:00;;;;;;;2.43;2.23;;;;;;;11.55;56.05;98478.03;10389421;28;20268;-72
2023/04/12 12:43:01;;;;;;;2.47;2.27;;;;;;;10.75;57.39;98390.44;10390742;28;20267;-72
2023/04/12 12:48:03;;;;;;;9.80;2.80;;;;;;;11.95;56.10;98499.03;10395630;28;20240;-72
2023/04/12 12:53:05;;;;;;;4.60;2.30;;;;;;;12.37;54.86;98513.34;10389972;28;20631;-72
2023/04/12 12:58:07;;;;;;;2.83;2.10;;;;;;;12.52;54.36;98507.59;10391337;28;20264;-73
2023/04/12 13:03:09;;;;;;;2.93;2.30;;;;;;;12.60;53.79;98505.63;10375334;28;20634;-72
2023/04/12 13:08:11;;;;;;;2.43;2.23;;;;;;;12.96;53.97;98509.22;10405388;28;20260;-72
2023/04/12 13:13:13;;;;;;;3.17;2.30;;;;;;;12.74;53.40;98473.00;10387256;28;20204;-72
2023/04/12 13:18:15;;;;;;;2.60;2.17;;;;;;;12.43;54.04;98409.66;10390205;28;20278;-72
2023/04/12 13:23:17;;;;;;;3.10;2.10;;;;;;;12.34;53.66;98331.41;10388769;28;20571;-72
2023/04/12 13:28:19;;;;;;;2.87;2.37;;;;;;;13.39;52.58;98406.00;10386606;28;20228;-72
2023/04/12 13:33:21;;;;;;;4.40;2.20;;;;;;;13.12;52.88;98390.38;10385026;28;20215;-72
2023/04/12 13:38:23;;;;;;;3.73;2.10;;;;;;;13.17;53.30;98354.75;10391695;28;20247;-72
2023/04/12 13:43:24;;;;;;;2.10;1.90;;;;;;;12.65;54.01;98324.09;10390038;28;20239;-71
2023/04/12 13:48:26;;;;;;;2.07;1.97;;;;;;;12.13;55.87;98300.59;10392889;28;20235;-72
2023/04/12 13:53:29;;;;;;;5.13;2.60;;;;;;;11.65;57.81;98279.28;10388166;28;20243;-73
2023/04/12 13:58:31;;;;;;;2.60;2.40;;;;;;;12.70;57.09;98363.66;10391781;28;20240;-72
2023/04/12 14:03:33;;;;;;;2.93;2.60;;;;;;;12.26;57.94;98334.41;10384133;28;20236;-72
2023/04/12 14:08:35;;;;;;;9.40;3.73;;;;;;;13.59;56.01;98445.94;10387991;28;20239;-67
2023/04/12 14:13:37;;;;;;;3.90;2.00;;;;;;;12.00;57.52;98338.34;10388766;28;20642;-74
2023/04/12 14:18:38;;;;;;;2.73;2.47;;;;;;;11.12;57.57;98313.69;10390133;28;20254;-68
2023/04/12 14:23:40;;;;;;;2.60;1.83;;;;;;;11.65;57.33;98367.69;10390980;28;20240;-74
2023/04/12 14:28:42;;;;;;;2.50;2.30;;;;;;;12.29;55.25;98441.25;10388718;28;20629;-74
2023/04/12 14:33:44;;;;;;;3.10;2.90;;;;;;;12.92;54.35;98458.69;10398497;28;20228;-69
2023/04/12 14:38:46;;;;;;;3.03;2.60;;;;;;;12.21;56.07;98408.56;10385474;28;20260;-72
2023/04/12 14:43:48;;;;;;;3.07;2.60;;;;;;;12.34;55.69;98413.75;10387996;28;20241;-71
2023/04/12 14:48:50;;;;;;;2.83;2.63;;;;;;;12.84;54.59;98463.56;10381936;28;20241;-74
2023/04/12 14:53:52;;;;;;;3.03;2.70;;;;;;;13.39;53.34;98494.69;10385318;28;20248;-72
2023/04/12 14:58:54;;;;;;;2.40;2.20;;;;;;;13.38;53.28;98495.72;10387315;28;20251;-75
2023/04/12 15:03:56;;;;;;;2.20;2.10;;;;;;;12.25;54.89;98429.34;10387294;28;20243;-71
2023/04/12 15:08:58;;;;;;;2.10;2.00;;;;;;;13.43;52.49;98482.41;10389047;28;21195;-71
2023/04/12 15:14:03;;;;;;;2.00;1.90;;;;;;;13.58;52.38;98479.22;10382671;28;20282;-71
2023/04/12 15:19:04;;;;;;;4.17;2.10;;;;;;;12.60;53.80;98407.16;10388633;28;20228;-69
2023/04/12 15:24:14;;;;;;;2.50;2.30;;;;;;;11.85;54.99;98378.94;10389128;28;20244;-71
2023/04/12 15:29:16;;;;;;;3.33;2.70;;;;;;;12.57;53.99;98407.66;10387077;28;20633;-71
2023/04/12 15:34:18;;;;;;;3.03;2.50;;;;;;;11.59;56.72;98348.75;10385566;28;20235;-82
2023/04/12 15:39:20;;;;;;;2.20;2.00;;;;;;;11.93;55.77;98386.69;10391777;28;20236;-75
2023/04/12 15:44:23;;;;;;;2.97;2.43;;;;;;;13.05;54.37;98467.56;10391291;28;20251;-71
2023/04/12 15:49:26;;;;;;;3.00;2.30;;;;;;;12.88;53.66;98464.75;10390639;28;20264;-68
2023/04/12 15:54:27;;;;;;;2.67;2.20;;;;;;;12.69;54.89;98415.72;10393169;28;20636;-68
2023/04/12 15:59:29;;;;;;;2.57;2.10;;;;;;;11.70;56.11;98347.19;10395137;28;20233;-68
2023/04/12 16:04:32;;;;;;;2.80;2.60;;;;;;;13.28;54.26;98459.53;10390298;28;20237;-68
2023/04/12 16:09:35;;;;;;;3.60;3.00;;;;;;;12.96;54.72;98434.03;10393184;28;20256;-73
2023/04/12 16:14:38;;;;;;;2.50;2.30;;;;;;;12.14;55.69;98389.88;10391536;28;20884;-73
2023/04/12 16:19:40;;;;;;;3.50;3.20;;;;;;;12.72;54.96;98431.31;10392573;28;20236;-72
2023/04/12 16:24:42;;;;;;;2.07;1.93;;;;;;;11.91;55.11;98378.06;10394278;28;20802;-72
2023/04/12 16:29:44;;;;;;;2.53;2.43;;;;;;;13.14;52.60;98487.63;10399874;28;20237;-72
2023/04/12 16:34:46;;;;;;;1.90;1.80;;;;;;;11.44;55.49;98348.34;10392573;28;20237;-74
2023/04/12 16:39:49;;;;;;;2.00;1.90;;;;;;;11.38;55.09;98317.09;10393519;28;20247;-70
2023/04/12 16:44:51;;;;;;;2.20;2.10;;;;;;;12.80;53.24;98455.16;10394335;28;20658;-68
2023/04/12 16:49:53;;;;;;;1.70;1.60;;;;;;;11.25;54.24;98334.97;10390978;28;20241;-71
2023/04/12 16:54:56;;;;;;;1.90;1.80;;;;;;;10.38;56.35;98331.47;10391624;28;22466;-68
2023/04/12 16:59:59;;;;;;;2.00;1.90;;;;;;;11.17;54.81;98396.00;10391215;28;20716;-71
2023/04/12 17:05:03;;;;;;;2.00;1.90;;;;;;;10.56;55.45;98371.63;10370855;22;20605;-38
2023/04/12 17:10:05;;;;;;;2.90;2.00;;;;;;;11.00;54.83;98428.72;10315696;28;20671;-38
2023/04/12 17:15:07;;;;;;;1.20;1.20;;;;;;;9.24;56.78;98249.38;10313377;28;20641;-36
2023/04/12 17:20:10;;;;;;;1.50;1.40;;;;;;;10.89;54.66;98458.88;10309371;28;20230;-36
2023/04/12 17:25:12;;;;;;;1.60;1.60;;;;;;;9.64;56.16;98379.22;10311175;28;20230;-39
2023/04/12 17:30:16;;;;;;;1.90;1.80;;;;;;;10.67;54.63;98429.78;10306756;28;20242;-39
2023/04/12 17:35:18;;;;;;;1.90;1.80;;;;;;;11.67;53.07;98496.88;10312377;28;23007;-39
2023/04/12 17:40:20;;;;;;;3.53;1.80;;;;;;;11.42;52.20;98442.31;10309795;28;20210;-39
2023/04/12 17:45:22;;;;;;;1.60;1.50;;;;;;;11.98;51.77;98485.19;10311809;28;20240;-38
2023/04/12 17:50:24;;;;;;;1.80;1.70;;;;;;;11.22;53.17;98444.34;10311938;28;20240;-39
2023/04/12 17:55:26;;;;;;;2.20;2.10;;;;;;;9.71;54.97;98327.38;10309665;28;20654;-38
2023/04/12 18:00:28;;;;;;;2.07;1.97;;;;;;;10.68;54.30;98409.19;10306564;28;20224;-38
2023/04/12 18:05:30;;;;;;;1.60;1.50;;;;;;;10.89;53.56;98424.88;10310146;28;20607;-38
2023/04/12 18:10:31;;;;;;;1.90;1.80;;;;;;;10.78;53.50;98403.38;10310164;28;20609;-38
2023/04/12 18:15:33;;;;;;;2.10;2.00;;;;;;;12.08;51.69;98523.00;10306691;28;20253;-38
2023/04/12 18:20:35;;;;;;;1.70;1.60;;;;;;;11.63;52.41;98502.69;10308154;28;20306;-38
2023/04/12 18:25:37;;;;;;;2.10;2.00;;;;;;;11.81;52.19;98519.81;10308818;28;20349;-38
2023/04/12 18:30:39;;;;;;;1.70;1.60;;;;;;;11.76;52.12;98520.50;10309084;28;20767;-38
2023/04/12 18:35:41;;;;;;;1.67;1.60;;;;;;;10.62;53.34;98410.88;10307432;28;20805;-38
2023/04/12 18:40:43;;;;;;;2.00;1.90;;;;;;;10.09;53.99;98404.06;10308656;28;20876;-38
2023/04/12 18:45:44;;;;;;;1.80;1.70;;;;;;;11.55;52.56;98497.59;10310918;28;20234;-38
2023/04/12 18:50:48;;;;;;;2.00;1.90;;;;;;;11.39;53.04;98480.25;10313127;28;20250;-38
2023/04/12 18:55:50;;;;;;;1.90;1.80;;;;;;;11.59;52.78;98512.19;10306004;28;20303;-38
2023/04/12 19:00:53;;;;;;;2.90;2.37;;;;;;;12.05;51.28;98593.16;10306552;28;20480;-38
2023/04/12 19:05:56;;;;;;;2.40;2.20;;;;;;;11.59;52.67;98547.03;10306023;28;20241;-38
2023/04/12 19:10:58;;;;;;;1.70;1.60;;;;;;;10.24;53.39;98483.16;10309827;28;20241;-38
2023/04/12 19:16:01;;;;;;;3.60;3.30;;;;;;;11.35;54.75;98623.66;10308962;28;20242;-39
2023/04/12 19:21:05;;;;;;;2.33;2.13;;;;;;;11.27;54.77;98586.44;10305754;28;20237;-39
2023/04/12 19:26:07;;;;;;;2.00;1.90;;;;;;;9.30;56.96;98423.88;10309802;28;20261;-38
2023/04/12 19:31:10;;;;;;;1.50;1.40;;;;;;;9.30;55.29;98451.41;10311862;28;20237;-38
2023/04/12 19:36:14;;;;;;;2.23;2.13;;;;;;;11.66;52.61;98648.81;10319632;28;20691;-39
2023/04/12 19:41:18;;;;;;;2.10;1.90;;;;;;;10.76;53.60;98593.56;10316881;28;20817;-39
2023/04/12 19:46:21;;;;;;;1.73;1.63;;;;;;;9.35;55.67;98496.19;10313804;28;20260;-39
2023/04/12 19:51:23;;;;;;;2.00;1.90;;;;;;;10.83;53.25;98622.97;10311258;28;20409;-39
2023/04/12 19:56:25;;;;;;;2.30;2.20;;;;;;;11.07;52.45;98632.13;10314014;28;20270;-38
2023/04/12 20:01:26;;;;;;;3.53;1.87;;;;;;;9.99;54.99;98568.56;10314920;28;20459;-39
2023/04/12 20:06:30;;;;;;;1.80;1.70;;;;;;;11.62;52.30;98694.00;10308249;28;20249;-38
2023/04/12 20:11:31;;;;;;;3.30;2.20;;;;;;;10.77;53.84;98637.22;10310521;28;20246;-39
2023/04/12 20:16:40;;;;;;;1.97;1.87;;;;;;;11.56;51.01;98715.44;10314729;28;20259;-39
2023/04/12 20:21:43;;;;;;;2.17;2.07;;;;;;;11.31;51.88;98702.00;10314113;28;20230;-39
2023/04/12 20:26:46;;;;;;;2.00;1.90;;;;;;;11.35;51.90;98706.69;10314149;28;20253;-39
2023/04/12 20:31:48;;;;;;;2.40;2.30;;;;;;;10.41;53.58;98652.78;10314239;28;20244;-38
2023/04/12 20:36:53;;;;;;;3.67;2.07;;;;;;;10.19;53.63;98644.22;10308417;28;20234;-38
2023/04/12 20:41:59;;;;;;;2.07;1.80;;;;;;;10.15;53.50;98656.34;10311596;28;20245;-38
2023/04/12 20:47:02;;;;;;;2.00;1.90;;;;;;;10.40;52.23;98672.53;10320588;28;20703;-39
2023/04/12 20:52:04;;;;;;;2.57;2.07;;;;;;;10.95;52.38;98722.16;10308532;28;20642;-38
2023/04/12 20:57:06;;;;;;;2.60;1.87;;;;;;;10.43;52.17;98677.44;10307033;28;20530;-38
2023/04/12 21:02:09;;;;;;;3.73;2.10;;;;;;;11.36;50.48;98761.09;10306548;28;20245;-39
2023/04/12 21:07:11;;;;;;;2.40;2.20;;;;;;;11.07;50.70;98736.53;10315661;28;20238;-38
2023/04/12 21:12:13;;;;;;;2.30;2.20;;;;;;;10.84;51.50;98724.44;10311696;28;20261;-38
2023/04/12 21:17:14;;;;;;;3.43;1.93;;;;;;;10.59;51.28;98707.44;10313400;28;20629;-38
2023/04/12 21:22:16;;;;;;;2.10;2.00;;;;;;;10.42;50.98;98694.53;10311686;28;20249;-39
2023/04/12 21:27:18;;;;;;;2.20;2.00;;;;;;;9.55;52.28;98643.84;10309928;28;20238;-38
2023/04/12 21:32:20;;;;;;;2.50;2.30;;;;;;;9.47;51.77;98635.22;10310054;28;20247;-39
2023/04/12 21:37:21;;;;;;;1.90;1.63;;;;;;;10.26;50.87;98733.22;10311468;28;20234;-39
2023/04/12 21:42:23;;;;;;;4.97;3.00;;;;;;;9.88;51.34;98703.66;10310518;28;20645;-38
2023/04/12 21:47:25;;;;;;;3.00;2.10;;;;;;;10.74;49.19;98777.56;10305072;28;20268;-39
2023/04/12 21:52:26;;;;;;;2.40;2.10;;;;;;;10.77;48.59;98789.75;10313004;28;20699;-39
2023/04/12 21:57:29;;;;;;;2.17;2.00;;;;;;;10.94;47.81;98790.13;10313748;28;20650;-39
2023/04/12 22:02:31;;;;;;;2.07;1.97;;;;;;;10.17;49.13;98734.47;10308665;28;20327;-38
2023/04/12 22:07:33;;;;;;;2.33;2.10;;;;;;;9.40;50.36;98653.91;10306412;28;20871;-39
2023/04/12 22:12:37;;;;;;;2.30;2.10;;;;;;;10.25;49.93;98739.59;10310770;28;20703;-38
2023/04/12 22:17:40;;;;;;;2.63;2.33;;;;;;;8.99;50.93;98625.50;10314234;28;20229;-38
2023/04/12 22:22:42;;;;;;;1.90;1.80;;;;;;;9.99;49.85;98713.72;10314018;28;20241;-38
2023/04/12 22:27:45;;;;;;;2.20;2.10;;;;;;;9.13;50.44;98608.50;10310945;28;20244;-39
2023/04/12 22:32:47;;;;;;;2.33;1.93;;;;;;;9.91;50.52;98687.22;10308623;28;20245;-38
2023/04/12 22:37:49;;;;;;;1.97;1.83;;;;;;;9.46;50.60;98645.06;10311307;28;20313;-38
2023/04/12 22:42:52;;;;;;;2.87;2.20;;;;;;;10.67;49.09;98748.16;10315515;28;20525;-38
2023/04/12 22:47:54;;;;;;;3.83;2.67;;;;;;;11.28;47.92;98782.75;10310466;28;20252;-39
2023/04/12 22:52:56;;;;;;;3.03;2.40;;;;;;;11.27;46.91;98771.22;10309766;28;20238;-38
2023/04/12 22:57:58;;;;;;;2.10;2.00;;;;;;;10.80;47.87;98722.41;10306911;28;20400;-38
2023/04/12 23:03:04;;;;;;;2.00;1.90;;;;;;;9.28;48.47;98597.63;10317008;28;20559;-39
2023/04/12 23:08:06;;;;;;;2.10;1.90;;;;;;;9.75;47.44;98649.19;10311762;28;20246;-38
2023/04/12 23:13:09;;;;;;;1.93;1.83;;;;;;;9.64;48.34;98638.28;10307621;28;20238;-38
2023/04/12 23:18:10;;;;;;;3.00;2.10;;;;;;;9.01;48.78;98588.75;10319475;22;20252;-70
2023/04/12 23:23:12;;;;;;;2.17;1.97;;;;;;;9.33;47.88;98634.38;10347795;28;20207;-69
2023/04/12 23:28:16;;;;;;;2.43;2.23;;;;;;;9.67;48.09;98653.88;10347180;28;20251;-68
2023/04/12 23:33:20;;;;;;;6.87;1.90;;;;;;;9.71;46.43;98661.28;10344949;28;20573;-69
2023/04/12 23:38:24;;;;;;;2.47;1.97;;;;;;;8.97;46.45;98607.00;10349041;28;20251;-69